Time;durP1;ratioP1;P1;durP2;ratioP2;P2;SDS_P1;SDS_P2;PMS_P1;PMS_P2;Temp;Humidity;BMP_temperature;BMP_pressure;BME280_temperature;BME280_humidity;BME280_pressure;Samples;Min_cycle;Max_cycle;Signal;HPM_P1;HPM_P2
2022/08/13 00:01:19;;;;;;;1.33;1.23;;;;;;;20.93;41.20;96716.56;6229819;23;20047;-82
2022/08/13 00:03:55;;;;;;;1.40;1.30;;;;;;;20.92;41.34;96717.59;6229818;23;20079;-82
2022/08/13 00:09:21;;;;;;;1.17;1.08;;;;;;;20.92;41.75;96704.34;6236847;23;20025;-82
2022/08/13 00:14:59;;;;;;;2.35;1.10;;;;;;;20.94;41.66;96710.22;6230328;23;20048;-82
2022/08/13 00:17:33;;;;;;;1.33;1.23;;;;;;;20.88;41.57;96716.53;6229939;23;20024;-82
2022/08/13 00:20:23;;;;;;;1.98;1.30;;;;;;;20.72;41.79;96712.03;6237012;23;20460;-81
2022/08/13 00:22:56;;;;;;;1.27;1.17;;;;;;;20.58;42.28;96712.38;6228897;23;20029;-82
2022/08/13 00:25:29;;;;;;;2.17;1.20;;;;;;;20.51;42.26;96713.53;6227582;23;20028;-82
2022/08/13 00:28:16;;;;;;;1.20;1.10;;;;;;;20.43;42.61;96706.81;6233097;23;20338;-82
2022/08/13 00:30:46;;;;;;;2.55;1.63;;;;;;;20.35;42.83;96715.16;6227807;23;20532;-82
2022/08/13 00:33:17;;;;;;;2.47;1.13;;;;;;;20.33;43.90;96714.59;6228585;23;20055;-81
2022/08/13 00:35:48;;;;;;;1.67;1.33;;;;;;;20.30;43.38;96710.59;6227834;23;20020;-82
2022/08/13 00:38:22;;;;;;;1.50;1.40;;;;;;;20.28;43.45;96712.66;6235345;23;20031;-81
2022/08/13 00:41:06;;;;;;;1.30;1.20;;;;;;;20.23;43.41;96704.66;6227335;23;20020;-82
2022/08/13 00:43:44;;;;;;;1.45;1.30;;;;;;;20.23;44.01;96703.84;6227150;23;20020;-82
2022/08/13 00:46:13;;;;;;;1.77;1.30;;;;;;;20.27;43.99;96699.66;6227856;23;20017;-81
2022/08/13 00:48:42;;;;;;;;;;;;;;;20.29;43.26;96701.06;6228036;23;20020;-82
2022/08/13 00:51:19;;;;;;;1.27;1.17;;;;;;;20.25;43.50;96696.47;6226374;23;19919;-82
2022/08/13 00:54:10;;;;;;;1.48;1.20;;;;;;;20.19;43.73;96697.44;6226097;23;20043;-82
2022/08/13 00:56:38;;;;;;;3.63;1.30;;;;;;;20.14;43.65;96687.56;6226473;23;20029;-82
2022/08/13 00:59:13;;;;;;;1.70;1.60;;;;;;;20.12;43.82;96692.28;6228301;23;20386;-82
2022/08/13 01:01:43;;;;;;;1.65;1.30;;;;;;;20.13;44.09;96689.38;6231625;23;20024;-81
2022/08/13 01:04:19;;;;;;;5.75;1.55;;;;;;;20.12;44.10;96684.34;6240191;23;20044;-80
2022/08/13 01:06:51;;;;;;;2.05;1.50;;;;;;;20.12;44.52;96677.19;6238270;23;20044;-82
2022/08/13 01:09:20;;;;;;;1.23;1.05;;;;;;;20.10;44.02;96673.19;6230659;23;20029;-82
2022/08/13 01:12:09;;;;;;;2.38;1.92;;;;;;;20.03;43.93;96673.34;6228213;23;20029;-82
2022/08/13 01:14:45;;;;;;;3.05;1.60;;;;;;;19.98;44.01;96664.50;6226821;23;20017;-82
2022/08/13 01:17:16;;;;;;;1.42;1.30;;;;;;;19.95;44.20;96665.81;6227717;23;20095;-82
2022/08/13 01:19:44;;;;;;;5.88;1.55;;;;;;;19.96;44.47;96664.75;6227322;23;20017;-82
2022/08/13 01:22:24;;;;;;;1.08;1.08;;;;;;;20.00;45.03;96665.88;6227542;23;20020;-82
2022/08/13 01:25:02;;;;;;;1.27;1.17;;;;;;;20.05;44.99;96670.44;6227873;23;20020;-82
2022/08/13 01:27:36;;;;;;;3.00;1.27;;;;;;;20.08;44.77;96670.78;6227389;23;20016;-82
2022/08/13 01:30:05;;;;;;;1.15;1.13;;;;;;;20.10;44.77;96668.69;6226343;23;20021;-82
2022/08/13 01:32:37;;;;;;;2.45;1.50;;;;;;;20.01;44.35;96667.50;6227192;23;20055;-82
2022/08/13 01:35:23;;;;;;;1.60;1.50;;;;;;;19.87;44.52;96660.88;6227598;23;20031;-81
2022/08/13 01:37:54;;;;;;;2.58;1.15;;;;;;;19.79;44.69;96655.97;6226798;23;20044;-81
2022/08/13 01:40:31;;;;;;;1.38;1.27;;;;;;;19.74;44.97;96660.16;6226381;23;20027;-80
2022/08/13 01:43:00;;;;;;;1.60;1.45;;;;;;;19.73;45.70;96658.56;6233034;23;20021;-82
2022/08/13 01:45:51;;;;;;;1.55;1.42;;;;;;;19.79;45.57;96658.63;6225431;23;20020;-81
2022/08/13 01:51:09;;;;;;;1.90;1.50;;;;;;;19.83;45.61;96657.13;6225209;23;20024;-81
2022/08/13 01:53:49;;;;;;;1.25;1.15;;;;;;;19.82;44.99;96660.81;6225036;23;20342;-81
2022/08/13 01:56:21;;;;;;;2.60;1.45;;;;;;;19.71;45.08;96650.03;6224865;23;20024;-82
2022/08/13 01:58:53;;;;;;;1.38;1.27;;;;;;;19.67;45.34;96651.53;6225833;23;20096;-82
2022/08/13 02:01:37;;;;;;;1.20;1.10;;;;;;;19.67;45.34;96654.16;6223401;23;20074;-82
2022/08/13 02:04:11;;;;;;;;;;;;;;;19.67;45.24;96656.81;6224340;23;20024;-82
2022/08/13 02:06:40;;;;;;;3.53;1.50;;;;;;;19.63;45.07;96647.75;6223279;23;19919;-81
2022/08/13 02:09:11;;;;;;;1.85;1.20;;;;;;;19.62;45.34;96651.44;6223549;23;20017;-82
2022/08/13 02:11:59;;;;;;;1.80;1.48;;;;;;;19.58;45.41;96655.59;6223942;23;20031;-82
2022/08/13 02:14:28;;;;;;;2.55;1.58;;;;;;;19.51;45.52;96654.97;6224014;23;20309;-82
2022/08/13 02:16:57;;;;;;;1.52;1.42;;;;;;;19.43;45.57;96657.97;6223869;23;20040;-82
2022/08/13 02:19:25;;;;;;;2.17;1.58;;;;;;;19.39;45.71;96659.47;6226014;23;20025;-81
2022/08/13 02:21:59;;;;;;;1.80;1.40;;;;;;;19.35;45.96;96657.31;6225381;23;20020;-81
2022/08/13 02:24:30;;;;;;;1.60;1.50;;;;;;;19.30;46.19;96659.84;6225562;23;20035;-80
2022/08/13 02:26:58;;;;;;;1.45;1.35;;;;;;;19.30;46.47;96661.69;6224077;23;20016;-82
2022/08/13 02:29:26;;;;;;;1.42;1.33;;;;;;;19.26;46.29;96650.81;6222894;23;20061;-82
2022/08/13 02:31:56;;;;;;;1.33;1.25;;;;;;;19.29;47.27;96652.97;6223612;23;20025;-81
2022/08/13 02:34:43;;;;;;;1.42;1.33;;;;;;;19.32;46.61;96652.50;6232669;23;20020;-82
2022/08/13 02:37:11;;;;;;;1.48;1.20;;;;;;;19.34;46.86;96655.69;6223966;23;20044;-82
2022/08/13 02:40:02;;;;;;;1.73;1.17;;;;;;;19.39;46.98;96651.53;6222646;23;20035;-79
2022/08/13 02:42:31;;;;;;;1.65;1.52;;;;;;;19.41;46.49;96657.41;6224032;23;20013;-82
2022/08/13 02:45:00;;;;;;;2.38;1.58;;;;;;;19.43;46.53;96657.97;6223079;23;20029;-81
2022/08/13 02:47:32;;;;;;;1.60;1.50;;;;;;;19.41;46.00;96650.25;6222798;23;20285;-82
2022/08/13 02:50:12;;;;;;;2.70;1.70;;;;;;;19.37;46.04;96643.84;6222160;23;20025;-81
2022/08/13 02:52:41;;;;;;;1.30;1.20;;;;;;;19.32;46.08;96646.41;6222975;23;20017;-82
2022/08/13 02:55:28;;;;;;;1.75;1.58;;;;;;;19.27;46.25;96644.47;6222790;23;20017;-82
2022/08/13 02:58:01;;;;;;;2.00;1.90;;;;;;;19.19;46.46;96636.09;6223045;23;20020;-82
2022/08/13 03:00:30;;;;;;;3.40;1.95;;;;;;;19.09;46.65;96642.00;6222594;23;20090;-82
2022/08/13 03:03:02;;;;;;;2.27;1.60;;;;;;;18.98;46.97;96641.00;6222313;23;20021;-82
2022/08/13 03:05:37;;;;;;;3.65;1.88;;;;;;;18.87;47.37;96640.00;6222717;23;20385;-82
2022/08/13 03:08:27;;;;;;;1.92;1.67;;;;;;;18.77;47.70;96644.22;6221039;23;20026;-82
2022/08/13 03:11:10;;;;;;;2.75;1.80;;;;;;;18.69;47.99;96648.03;6220898;23;20517;-82
2022/08/13 03:13:44;;;;;;;1.73;1.60;;;;;;;18.75;48.99;96649.75;6222089;23;20028;-82
2022/08/13 03:16:16;;;;;;;2.80;1.60;;;;;;;18.80;48.31;96646.44;6225134;23;20076;-79
2022/08/13 03:18:45;;;;;;;1.60;1.50;;;;;;;18.85;48.51;96652.63;6242418;23;20052;-80
2022/08/13 03:21:23;;;;;;;1.80;1.70;;;;;;;18.89;48.07;96652.97;6242911;23;20111;-79
2022/08/13 03:24:13;;;;;;;1.90;1.65;;;;;;;18.83;47.69;96649.44;6226687;23;20550;-82
2022/08/13 03:26:50;;;;;;;1.75;1.65;;;;;;;18.77;47.70;96646.88;6221110;23;20013;-82
2022/08/13 03:29:20;;;;;;;2.00;1.90;;;;;;;18.68;47.91;96651.72;6220535;23;20071;-82
2022/08/13 03:32:08;;;;;;;2.42;2.22;;;;;;;18.62;47.97;96652.63;6221147;23;20016;-81
2022/08/13 03:34:40;;;;;;;2.67;2.17;;;;;;;18.52;48.07;96658.50;6221413;23;20028;-82
2022/08/13 03:37:09;;;;;;;3.10;2.05;;;;;;;18.50;48.33;96656.09;6221067;23;20056;-82
2022/08/13 03:39:37;;;;;;;2.42;2.22;;;;;;;18.51;49.02;96656.88;6220611;23;20031;-82
2022/08/13 03:42:09;;;;;;;2.35;2.15;;;;;;;18.54;48.22;96651.13;6221034;23;20025;-82
2022/08/13 03:44:39;;;;;;;3.83;2.40;;;;;;;18.48;48.01;96652.88;6221275;23;20021;-82
2022/08/13 03:47:07;;;;;;;1.85;1.75;;;;;;;18.49;49.07;96654.47;6219595;23;20044;-81
2022/08/13 03:49:54;;;;;;;2.47;2.28;;;;;;;18.45;48.27;96645.41;6219070;23;20088;-82
2022/08/13 03:52:23;;;;;;;2.40;2.20;;;;;;;18.38;48.40;96652.63;6219516;23;20021;-81
2022/08/13 03:55:01;;;;;;;2.47;2.28;;;;;;;18.29;48.42;96660.09;6219974;23;20048;-82
2022/08/13 03:57:31;;;;;;;2.97;2.25;;;;;;;18.20;48.48;96655.41;6220028;23;20059;-81
2022/08/13 04:00:18;;;;;;;5.13;2.15;;;;;;;18.09;48.90;96649.88;6226222;23;20044;-82
2022/08/13 04:02:46;;;;;;;2.55;2.20;;;;;;;18.08;49.49;96648.28;6220743;23;20024;-82
2022/08/13 04:05:16;;;;;;;1.77;1.60;;;;;;;18.15;49.63;96655.25;6220566;23;20024;-82
2022/08/13 04:08:04;;;;;;;2.85;1.90;;;;;;;18.23;49.26;96654.94;6219484;23;20099;-81
2022/08/13 04:10:41;;;;;;;3.38;2.00;;;;;;;18.19;48.88;96656.41;6219485;23;20035;-81
2022/08/13 04:13:24;;;;;;;2.40;2.20;;;;;;;18.09;49.09;96652.50;6218645;23;20027;-82
2022/08/13 04:16:14;;;;;;;3.22;2.40;;;;;;;18.01;49.25;96646.75;6218051;23;20021;-82
2022/08/13 04:18:43;;;;;;;1.95;1.85;;;;;;;17.99;49.41;96656.75;6219151;23;20043;-82
2022/08/13 04:21:15;;;;;;;2.00;1.90;;;;;;;18.02;49.52;96654.47;6218880;23;20028;-81
2022/08/13 04:23:52;;;;;;;2.20;2.00;;;;;;;18.04;49.41;96656.88;6220017;23;20020;-82
2022/08/13 04:26:24;;;;;;;2.53;1.88;;;;;;;18.08;49.66;96656.19;6239677;23;20047;-81
2022/08/13 04:29:02;;;;;;;2.38;2.17;;;;;;;18.14;49.47;96651.03;6241840;23;20073;-79
2022/08/13 04:31:31;;;;;;;2.28;2.08;;;;;;;18.17;49.30;96645.28;6228051;23;20024;-82
2022/08/13 04:34:17;;;;;;;2.50;2.28;;;;;;;18.20;49.14;96642.19;6221765;23;20051;-82
2022/08/13 04:37:07;;;;;;;2.60;2.40;;;;;;;18.25;49.24;96647.59;6219568;23;20027;-82
2022/08/13 04:39:37;;;;;;;2.50;2.00;;;;;;;18.21;48.76;96646.44;6219147;23;20079;-82
2022/08/13 04:42:24;;;;;;;3.15;2.20;;;;;;;18.19;49.29;96659.06;6218811;23;20021;-82
2022/08/13 04:45:05;;;;;;;3.50;2.15;;;;;;;18.16;49.38;96657.69;6219117;23;20020;-82
2022/08/13 04:47:38;;;;;;;3.33;2.75;;;;;;;18.10;49.18;96659.41;6217775;23;20465;-81
2022/08/13 04:50:08;;;;;;;2.95;2.70;;;;;;;18.09;49.04;96657.00;6218108;23;20056;-82
2022/08/13 04:52:37;;;;;;;2.85;2.47;;;;;;;18.07;49.22;96659.84;6220016;23;20020;-82
2022/08/13 04:55:06;;;;;;;3.08;2.80;;;;;;;18.05;49.47;96654.00;6220917;23;20051;-82
2022/08/13 04:57:41;;;;;;;3.13;2.88;;;;;;;18.03;49.26;96657.91;6220540;23;20021;-82
2022/08/13 05:00:25;;;;;;;2.00;1.90;;;;;;;18.05;49.77;96658.47;6219649;23;20070;-82
2022/08/13 05:02:53;;;;;;;2.92;2.45;;;;;;;18.07;49.54;96659.06;6220625;23;20012;-82
2022/08/13 05:05:24;;;;;;;2.00;1.90;;;;;;;18.07;49.49;96661.69;6220877;23;20131;-82
2022/08/13 05:07:53;;;;;;;2.63;1.88;;;;;;;18.05;49.62;96656.63;6227096;23;20035;-80
2022/08/13 05:10:21;;;;;;;6.30;2.10;;;;;;;18.08;49.83;96664.13;6220136;23;20028;-82
2022/08/13 05:12:58;;;;;;;2.85;2.15;;;;;;;18.07;49.23;96654.56;6220959;23;20095;-82
2022/08/13 05:15:31;;;;;;;2.30;2.20;;;;;;;18.02;49.11;96658.94;6220671;23;20044;-82
2022/08/13 05:18:15;;;;;;;3.55;3.08;;;;;;;17.97;49.34;96656.16;6220834;23;20457;-81
2022/08/13 05:20:55;;;;;;;2.22;2.13;;;;;;;17.92;49.61;96655.00;6221773;23;20075;-81
2022/08/13 05:23:24;;;;;;;2.08;1.98;;;;;;;17.93;50.10;96655.84;6222255;23;20021;-82
2022/08/13 05:26:12;;;;;;;3.35;2.58;;;;;;;17.96;49.97;96655.38;6220504;23;20030;-82
2022/08/13 05:29:04;;;;;;;2.45;2.25;;;;;;;18.02;49.64;96664.22;6220121;23;20103;-82
2022/08/13 05:31:34;;;;;;;2.50;2.22;;;;;;;18.04;49.44;96668.25;6223067;23;20350;-82
2022/08/13 05:34:23;;;;;;;2.45;2.28;;;;;;;18.03;49.46;96663.19;6220118;23;20108;-82
2022/08/13 05:36:52;;;;;;;2.60;2.40;;;;;;;18.03;49.63;96656.06;6220674;23;20024;-82
2022/08/13 05:39:40;;;;;;;2.90;2.70;;;;;;;18.02;49.48;96665.03;6219059;23;20021;-81
2022/08/13 05:42:16;;;;;;;2.65;2.45;;;;;;;17.96;49.72;96660.66;6219825;23;20024;-82
2022/08/13 05:44:47;;;;;;;3.92;2.92;;;;;;;17.92;49.84;96664.75;6220886;23;20449;-82
2022/08/13 05:47:17;;;;;;;2.63;2.42;;;;;;;17.91;50.29;96668.44;6220411;23;20104;-80
2022/08/13 05:49:51;;;;;;;2.60;2.40;;;;;;;17.95;50.20;96658.22;6215791;23;20017;-75
2022/08/13 05:52:25;;;;;;;3.00;2.80;;;;;;;17.97;50.25;96667.53;6215884;23;20020;-76
2022/08/13 05:55:11;;;;;;;3.47;2.85;;;;;;;18.00;50.29;96666.28;6215740;23;20399;-73
2022/08/13 05:57:58;;;;;;;2.72;2.53;;;;;;;18.00;50.17;96669.72;6215541;23;20024;-73
2022/08/13 06:03:28;;;;;;;5.00;3.22;;;;;;;17.95;50.03;96669.59;6214731;23;20091;-73
2022/08/13 06:06:18;;;;;;;3.17;2.78;;;;;;;17.92;50.22;96670.84;6215230;23;20021;-74
2022/08/13 06:08:56;;;;;;;2.78;2.55;;;;;;;17.96;50.25;96673.84;6215480;23;20025;-74
2022/08/13 06:11:27;;;;;;;3.17;2.60;;;;;;;18.03;50.47;96674.53;6215230;23;20099;-74
2022/08/13 06:14:20;;;;;;;4.47;3.30;;;;;;;18.08;50.49;96674.69;6215351;23;20021;-74
2022/08/13 06:16:52;;;;;;;4.15;2.90;;;;;;;18.11;50.49;96668.94;6215642;23;20097;-74
2022/08/13 06:19:25;;;;;;;2.78;2.58;;;;;;;18.19;50.65;96661.69;6215532;23;20021;-75
2022/08/13 06:21:57;;;;;;;3.38;2.92;;;;;;;18.26;50.67;96665.06;6215040;23;20483;-74
2022/08/13 06:24:28;;;;;;;4.00;2.50;;;;;;;18.35;50.72;96668.97;6215142;23;20105;-74
2022/08/13 06:27:01;;;;;;;2.50;2.30;;;;;;;18.46;50.44;96670.78;6215266;23;20021;-74
2022/08/13 06:29:30;;;;;;;2.60;2.40;;;;;;;18.57;50.30;96682.38;6215902;23;20021;-74
2022/08/13 06:32:04;;;;;;;2.65;2.28;;;;;;;18.66;50.04;96672.28;6215233;23;20349;-74
2022/08/13 06:34:53;;;;;;;2.72;2.53;;;;;;;18.77;50.09;96682.03;6215029;23;20021;-74
2022/08/13 06:37:22;;;;;;;3.97;3.03;;;;;;;18.87;50.01;96682.28;6215567;23;20048;-76
2022/08/13 06:39:52;;;;;;;3.00;2.47;;;;;;;18.98;50.09;96679.84;6215295;23;20361;-74
2022/08/13 06:42:29;;;;;;;3.67;2.60;;;;;;;19.09;49.74;96676.38;6215424;23;20173;-74
2022/08/13 06:44:58;;;;;;;3.50;2.88;;;;;;;19.19;49.77;96679.22;6215341;23;20044;-74
2022/08/13 06:47:29;;;;;;;2.67;2.47;;;;;;;19.27;49.70;96684.13;6214514;23;20021;-74
2022/08/13 06:50:11;;;;;;;2.50;2.30;;;;;;;19.37;50.06;96696.75;6214663;23;20373;-74
2022/08/13 06:52:41;;;;;;;3.33;2.67;;;;;;;19.47;49.65;96691.66;6215392;23;20520;-74
2022/08/13 06:55:29;;;;;;;2.03;1.92;;;;;;;19.60;49.22;96695.06;6214850;23;20020;-74
2022/08/13 06:58:17;;;;;;;7.00;2.50;;;;;;;19.72;49.05;96698.47;6214725;23;20016;-74
2022/08/13 07:00:48;;;;;;;2.65;1.95;;;;;;;19.82;48.50;96689.94;6215973;23;20017;-74
2022/08/13 07:03:17;;;;;;;2.72;1.98;;;;;;;19.92;48.55;96690.13;6217118;23;20059;-74
2022/08/13 07:05:49;;;;;;;5.88;2.70;;;;;;;20.06;48.68;96695.91;6216233;23;20024;-74
2022/08/13 07:08:27;;;;;;;2.10;2.00;;;;;;;20.17;47.91;96690.50;6214659;23;20325;-74
2022/08/13 07:13:53;;;;;;;2.00;1.88;;;;;;;20.38;47.20;96691.66;6214786;23;20044;-74
2022/08/13 07:16:22;;;;;;;2.22;2.05;;;;;;;20.49;47.02;96687.31;6214569;23;20527;-74
2022/08/13 07:18:54;;;;;;;2.55;1.98;;;;;;;20.60;46.79;96687.47;6214596;23;20023;-74
2022/08/13 07:21:25;;;;;;;2.35;1.90;;;;;;;20.72;46.76;96696.13;6214394;23;20037;-74
2022/08/13 07:24:09;;;;;;;1.85;1.65;;;;;;;20.85;46.30;96679.88;6214922;23;20020;-74
2022/08/13 07:27:02;;;;;;;1.98;1.73;;;;;;;20.92;46.15;96685.78;6214366;23;20020;-74
2022/08/13 07:29:32;;;;;;;2.65;1.83;;;;;;;20.99;46.10;96690.94;6214596;23;20099;-74
2022/08/13 07:32:11;;;;;;;1.70;1.60;;;;;;;21.09;46.10;96688.41;6214176;23;20057;-74
2022/08/13 07:34:41;;;;;;;1.95;1.85;;;;;;;21.21;45.94;96690.94;6215172;23;20326;-75
2022/08/13 07:37:20;;;;;;;2.00;1.90;;;;;;;21.39;45.87;96695.91;6214531;23;20445;-74
2022/08/13 07:39:49;;;;;;;2.38;2.00;;;;;;;21.55;45.48;96694.25;6214837;23;20021;-75
2022/08/13 07:42:21;;;;;;;2.75;1.67;;;;;;;21.70;44.79;96690.97;6214377;23;20047;-74
2022/08/13 07:45:10;;;;;;;2.50;1.95;;;;;;;21.89;44.43;96686.09;6214784;23;20028;-74
2022/08/13 07:47:58;;;;;;;4.20;3.08;;;;;;;22.02;44.23;96684.91;6214469;23;20103;-74
2022/08/13 07:50:46;;;;;;;4.10;2.13;;;;;;;22.11;44.10;96685.25;6213917;23;20020;-74
2022/08/13 07:53:35;;;;;;;1.80;1.70;;;;;;;22.17;43.92;96687.69;6214973;23;20048;-74
2022/08/13 07:56:28;;;;;;;3.55;2.33;;;;;;;22.27;43.84;96688.84;6214813;23;20099;-74
2022/08/13 07:59:02;;;;;;;3.20;1.95;;;;;;;22.38;43.84;96686.00;6214460;23;20074;-74
2022/08/13 08:01:36;;;;;;;2.95;1.67;;;;;;;22.52;43.63;96683.72;6213904;23;20024;-74
2022/08/13 08:04:25;;;;;;;2.13;1.92;;;;;;;22.69;43.21;96680.06;6217698;23;20024;-74
2022/08/13 08:06:57;;;;;;;;;;;;;;;22.80;42.88;96681.72;6219832;23;20024;-75
2022/08/13 08:09:29;;;;;;;3.10;2.15;;;;;;;22.84;42.80;96685.47;6216784;23;19955;-74
2022/08/13 08:14:53;;;;;;;2.58;1.67;;;;;;;22.91;42.52;96683.38;6233006;23;20017;-74
2022/08/13 08:17:26;;;;;;;1.90;1.80;;;;;;;22.96;42.32;96680.75;6229658;23;20024;-74
2022/08/13 08:20:21;;;;;;;1.30;1.20;;;;;;;23.01;41.15;96688.00;6215441;23;20027;-74
2022/08/13 08:23:05;;;;;;;1.80;1.60;;;;;;;23.07;40.59;96686.16;6214886;23;20495;-74
2022/08/13 08:25:56;;;;;;;1.77;1.35;;;;;;;23.12;40.28;96678.19;6213936;23;20046;-74
2022/08/13 08:28:31;;;;;;;1.65;1.55;;;;;;;23.16;39.78;96687.28;6214216;23;20072;-74
2022/08/13 08:31:06;;;;;;;1.45;1.35;;;;;;;23.20;39.58;96688.34;6214129;23;20025;-74
2022/08/13 08:33:56;;;;;;;1.38;1.27;;;;;;;23.23;39.91;96685.94;6214406;23;20039;-74
2022/08/13 08:36:24;;;;;;;4.25;1.30;;;;;;;23.30;39.89;96688.38;6214511;23;20055;-74
2022/08/13 08:42:35;;;;;;;1.90;1.80;;;;;;;23.45;41.26;96692.94;6188054;23;20465;-74
2022/08/13 08:45:04;;;;;;;;;;;;;;;23.56;40.68;96691.13;6214696;23;20052;-74
2022/08/13 08:47:39;;;;;;;2.00;1.80;;;;;;;23.67;40.57;96689.28;6214673;23;19916;-75
2022/08/13 08:50:16;;;;;;;4.90;1.83;;;;;;;23.80;40.54;96700.25;6214559;23;20300;-75
2022/08/13 08:56:01;;;;;;;3.83;2.28;;;;;;;24.20;39.54;96677.34;6214178;23;20099;-75
2022/08/13 08:58:36;;;;;;;1.58;1.27;;;;;;;24.37;38.86;96679.75;6214778;23;20017;-75
2022/08/13 09:01:07;;;;;;;4.97;1.65;;;;;;;24.50;38.71;96675.78;6213463;23;20025;-75
2022/08/13 09:03:39;;;;;;;1.85;1.65;;;;;;;24.64;38.85;96671.50;6214669;23;20086;-75
2022/08/13 09:06:26;;;;;;;2.63;1.40;;;;;;;24.79;37.29;96664.50;6214448;23;20349;-75
2022/08/13 09:09:14;;;;;;;1.98;1.50;;;;;;;24.94;37.50;96664.47;6213847;23;20027;-75
2022/08/13 09:11:45;;;;;;;1.40;1.30;;;;;;;25.04;37.12;96668.97;6213995;23;20094;-75
2022/08/13 09:14:24;;;;;;;2.72;1.48;;;;;;;25.16;37.06;96666.78;6214303;23;20020;-75
2022/08/13 09:16:53;;;;;;;2.03;1.60;;;;;;;25.28;36.35;96663.84;6214459;23;20352;-75
2022/08/13 09:19:23;;;;;;;2.50;1.45;;;;;;;25.42;36.11;96664.03;6214446;23;20020;-75
2022/08/13 09:22:15;;;;;;;1.55;1.20;;;;;;;25.51;34.63;96651.69;6213437;23;20023;-75
2022/08/13 09:24:48;;;;;;;1.73;1.52;;;;;;;25.64;34.14;96656.41;6214511;23;20017;-75
2022/08/13 09:27:17;;;;;;;2.35;1.20;;;;;;;25.81;34.22;96655.25;6214173;23;20087;-75
2022/08/13 09:29:49;;;;;;;1.60;1.50;;;;;;;25.95;33.94;96642.06;6214045;23;20016;-75
2022/08/13 09:32:29;;;;;;;2.33;1.02;;;;;;;26.03;32.86;96642.25;6214146;23;20020;-75
2022/08/13 09:35:01;;;;;;;1.10;1.00;;;;;;;26.09;33.01;96637.69;6214160;23;20103;-75
2022/08/13 09:37:30;;;;;;;1.08;1.00;;;;;;;26.20;32.77;96652.56;6214353;23;20096;-75
2022/08/13 09:40:21;;;;;;;1.38;1.30;;;;;;;26.29;32.10;96644.72;6215078;23;20099;-75
2022/08/13 09:43:17;;;;;;;1.23;1.13;;;;;;;26.33;31.70;96647.63;6215530;23;20020;-75
2022/08/13 09:46:07;;;;;;;2.00;0.95;;;;;;;26.42;31.56;96657.44;6215570;23;20415;-75
2022/08/13 09:48:36;;;;;;;1.40;1.00;;;;;;;26.50;30.97;96659.50;6215921;23;20048;-75
2022/08/13 09:51:14;;;;;;;2.90;1.10;;;;;;;26.59;30.49;96645.50;6215255;23;20020;-75
2022/08/13 09:54:02;;;;;;;1.25;1.05;;;;;;;26.67;30.56;96651.03;6215420;23;20115;-75
2022/08/13 09:56:37;;;;;;;1.67;1.10;;;;;;;26.70;30.20;96647.81;6216098;23;20403;-75
2022/08/13 09:59:05;;;;;;;1.65;1.20;;;;;;;26.79;30.19;96655.22;6215724;23;20403;-75
2022/08/13 10:01:43;;;;;;;1.10;1.00;;;;;;;26.83;29.24;96651.69;6214939;23;20108;-75
2022/08/13 10:04:26;;;;;;;1.48;0.88;;;;;;;26.82;29.37;96642.06;6215709;23;20027;-75
2022/08/13 10:06:58;;;;;;;1.30;1.20;;;;;;;26.86;29.40;96631.59;6215812;23;20021;-77
2022/08/13 10:09:33;;;;;;;1.60;0.73;;;;;;;26.94;29.46;96644.34;6215524;23;20028;-75
2022/08/13 10:12:01;;;;;;;1.90;1.00;;;;;;;27.02;29.05;96640.22;6215573;23;20074;-75
2022/08/13 10:14:47;;;;;;;1.08;0.90;;;;;;;27.07;28.78;96643.66;6215218;23;20079;-75
2022/08/13 10:17:26;;;;;;;1.40;0.93;;;;;;;27.15;28.81;96631.50;6215392;23;20036;-75
2022/08/13 10:20:13;;;;;;;1.38;0.80;;;;;;;27.23;28.73;96640.81;6215258;23;20024;-75
2022/08/13 10:22:42;;;;;;;7.65;1.25;;;;;;;27.26;28.41;96632.97;6216034;23;20031;-75
2022/08/13 10:25:11;;;;;;;1.00;0.90;;;;;;;27.29;29.08;96628.94;6216640;23;20024;-75
2022/08/13 10:27:39;;;;;;;1.52;0.85;;;;;;;27.33;28.61;96640.66;6216783;23;20051;-75
2022/08/13 10:30:18;;;;;;;1.58;0.90;;;;;;;27.39;28.68;96644.88;6215042;23;20068;-75
2022/08/13 10:33:08;;;;;;;1.60;1.00;;;;;;;27.51;27.99;96647.91;6215290;23;20031;-75
2022/08/13 10:35:37;;;;;;;1.27;0.70;;;;;;;27.57;27.90;96645.16;6215017;23;20560;-75
2022/08/13 10:38:14;;;;;;;1.67;1.08;;;;;;;27.59;26.81;96626.91;6215606;23;20028;-75
2022/08/13 10:40:46;;;;;;;1.98;0.90;;;;;;;27.60;27.30;96639.25;6215322;23;20023;-75
2022/08/13 10:43:14;;;;;;;1.08;0.98;;;;;;;27.61;27.30;96627.41;6214948;23;20492;-75
2022/08/13 10:45:51;;;;;;;2.47;1.00;;;;;;;27.69;27.52;96624.09;6215195;23;20028;-75
2022/08/13 10:48:20;;;;;;;4.68;1.13;;;;;;;27.77;27.47;96627.97;6215209;23;20056;-76
2022/08/13 10:50:48;;;;;;;2.78;0.98;;;;;;;27.83;26.78;96616.88;6214400;23;20020;-75
2022/08/13 10:56:10;;;;;;;1.58;0.90;;;;;;;28.00;26.86;96612.91;6214590;23;20024;-76
2022/08/13 10:58:38;;;;;;;2.08;1.58;;;;;;;28.03;26.65;96618.50;6215023;23;20016;-75
2022/08/13 11:01:19;;;;;;;0.90;0.90;;;;;;;28.02;27.18;96618.78;6214247;23;20024;-75
2022/08/13 11:03:48;;;;;;;2.30;0.90;;;;;;;28.02;26.52;96613.41;6215166;23;20060;-75
2022/08/13 11:06:34;;;;;;;0.80;0.80;;;;;;;28.00;26.55;96605.66;6214656;23;20024;-75
2022/08/13 11:09:04;;;;;;;3.03;0.85;;;;;;;28.01;26.35;96606.44;6214773;23;20040;-76
2022/08/13 11:11:52;;;;;;;1.88;1.15;;;;;;;28.02;26.45;96598.13;6214034;23;20027;-76
2022/08/13 11:14:21;;;;;;;0.88;0.88;;;;;;;28.08;26.85;96606.88;6214420;23;20028;-76
2022/08/13 11:17:04;;;;;;;1.33;0.98;;;;;;;28.14;26.76;96616.41;6215334;23;20020;-76
2022/08/13 11:19:46;;;;;;;0.95;0.90;;;;;;;28.17;26.31;96610.47;6214423;23;20063;-77
2022/08/13 11:22:19;;;;;;;1.00;0.90;;;;;;;28.21;26.56;96610.69;6214925;23;20025;-76
2022/08/13 11:24:53;;;;;;;0.93;0.93;;;;;;;28.20;26.31;96614.44;6214916;23;20025;-76
2022/08/13 11:27:21;;;;;;;2.00;1.10;;;;;;;28.16;26.03;96608.88;6214458;23;20484;-76
2022/08/13 11:29:57;;;;;;;1.25;1.00;;;;;;;28.15;26.29;96612.66;6214175;23;20473;-76
2022/08/13 11:32:24;;;;;;;1.52;1.10;;;;;;;28.19;26.34;96607.50;6216742;23;20063;-76
2022/08/13 11:34:55;;;;;;;1.23;1.10;;;;;;;28.22;26.71;96615.75;6220850;23;20056;-76
2022/08/13 11:37:24;;;;;;;1.20;1.08;;;;;;;28.29;26.92;96610.78;6219454;23;20028;-76
2022/08/13 11:39:52;;;;;;;1.20;0.90;;;;;;;28.39;27.43;96606.34;6216687;23;20361;-76
2022/08/13 11:42:39;;;;;;;1.67;1.25;;;;;;;28.44;26.85;96593.63;6235134;23;20028;-75
2022/08/13 11:45:09;;;;;;;1.83;0.93;;;;;;;28.50;26.92;96602.41;6229047;23;20031;-75
2022/08/13 11:47:39;;;;;;;1.23;1.13;;;;;;;28.51;26.50;96603.97;6216699;23;20028;-75
2022/08/13 11:50:14;;;;;;;1.30;1.20;;;;;;;28.51;26.76;96609.34;6216845;23;20012;-79
2022/08/13 11:52:57;;;;;;;1.50;0.73;;;;;;;28.56;26.57;96590.50;6236729;23;20072;-78
2022/08/13 11:55:25;;;;;;;1.70;1.08;;;;;;;28.63;26.51;96596.25;6238684;23;20028;-81
2022/08/13 11:57:59;;;;;;;1.73;1.23;;;;;;;28.69;26.57;96587.00;6239056;23;20027;-80
2022/08/13 12:00:28;;;;;;;2.15;0.90;;;;;;;28.78;26.17;96587.09;6238811;23;20012;-81
2022/08/13 12:03:00;;;;;;;2.25;0.90;;;;;;;28.80;26.17;96584.09;6240770;23;20028;-81
2022/08/13 12:05:29;;;;;;;0.68;0.68;;;;;;;28.75;25.87;96588.50;6240985;23;20009;-80
2022/08/13 12:07:59;;;;;;;4.28;1.00;;;;;;;28.70;25.94;96574.38;6240653;23;20005;-81
2022/08/13 12:10:27;;;;;;;2.30;1.13;;;;;;;28.70;26.20;96575.16;6239734;23;20020;-81
2022/08/13 12:13:15;;;;;;;1.70;1.00;;;;;;;28.75;26.39;96569.72;6240064;23;20044;-81
2022/08/13 12:15:48;;;;;;;4.72;0.95;;;;;;;28.82;25.98;96569.31;6240369;23;20013;-81
2022/08/13 12:18:35;;;;;;;1.00;1.00;;;;;;;28.88;25.64;96572.66;6240983;23;20076;-80
2022/08/13 12:21:07;;;;;;;2.15;0.90;;;;;;;28.89;25.38;96571.59;6239709;23;20020;-81
2022/08/13 12:23:44;;;;;;;0.80;0.80;;;;;;;28.92;25.60;96568.28;6240305;23;20029;-80
2022/08/13 12:26:28;;;;;;;1.80;0.93;;;;;;;28.93;25.06;96567.22;6240089;23;20016;-81
2022/08/13 12:28:57;;;;;;;0.98;0.85;;;;;;;28.93;25.56;96573.38;6239684;23;20004;-81
2022/08/13 12:31:25;;;;;;;1.75;0.90;;;;;;;28.96;25.91;96569.28;6239512;23;20107;-80
2022/08/13 12:34:00;;;;;;;1.52;0.90;;;;;;;29.03;25.15;96566.97;6240345;23;20018;-81
2022/08/13 12:36:28;;;;;;;1.00;0.95;;;;;;;29.03;25.04;96566.97;6240177;23;20024;-81
2022/08/13 12:38:58;;;;;;;1.00;0.93;;;;;;;29.00;25.09;96567.59;6240670;23;20024;-81
2022/08/13 12:41:31;;;;;;;2.08;1.05;;;;;;;28.89;24.73;96561.63;6240130;23;20028;-81